• Join FlightAware (Why Join?)
  • Login
  • US Flag 
10:25PM EST


 

Airport Tracker/Info


-or-


 

Live Flight TrackerFlight Track Log ✈ CSN8315 ✈ 27-Jan-2014 ✈ ZYMD / MDG - ZSPD / PVG

Flight Track Log - Related Links

Times and Time Zones

All times are in EST time to prevent confusion due to time zone crossing. See the CSN8315 flight status page for this flight to view local times or setup timezone preferences in your user account.

Time Position Orientation Groundspeed Altitude Reporting Facility
EST Latitude Longitude Course Direction KTS MPH feet Rate Location/Type
04:19AM 44.1272 129.2858 207° Southwest  Level Estimated
04:20AM 44.0478 129.2296 207° Southwest  Level Estimated
04:21AM 43.9683 129.1736 207° Southwest  Level Estimated
04:22AM 43.8888 129.1177 207° Southwest  Level Estimated
04:23AM 43.8092 129.0620 207° Southwest  Level Estimated
04:24AM 43.7297 129.0064 207° Southwest  Level Estimated
04:25AM 43.6501 128.9510 207° Southwest  Level Estimated
04:26AM 43.5705 128.8957 207° Southwest  Level Estimated
04:27AM 43.4908 128.8405 207° Southwest  Level Estimated
04:28AM 43.4112 128.7856 207° Southwest  Level Estimated
04:29AM 43.3315 128.7307 207° Southwest  Level Estimated
04:30AM 43.2518 128.6760 207° Southwest  Level Estimated
04:31AM 43.1720 128.6214 207° Southwest  Level Estimated
04:32AM 43.0922 128.5670 206° Southwest  Level Estimated
04:33AM 43.0124 128.5127 206° Southwest  Level Estimated
04:34AM 42.9326 128.4586 206° Southwest  Level Estimated
04:35AM 42.8528 128.4046 206° Southwest  Level Estimated
04:36AM 42.7729 128.3507 206° Southwest  Level Estimated
04:37AM 42.6930 128.2970 206° Southwest  Level Estimated
04:38AM 42.6131 128.2434 206° Southwest  Level Estimated
04:39AM 42.5331 128.1900 206° Southwest  Level Estimated
04:40AM 42.4532 128.1367 206° Southwest  Level Estimated
04:41AM 42.3732 128.0835 206° Southwest  Level Estimated
04:42AM 42.2931 128.0305 206° Southwest  Level Estimated
04:43AM 42.2131 127.9776 206° Southwest  Level Estimated
04:44AM 42.1330 127.9248 206° Southwest  Level Estimated
04:45AM 42.0529 127.8722 206° Southwest  Level Estimated
04:46AM 41.9728 127.8197 206° Southwest  Level Estimated
04:47AM 41.8927 127.7673 206° Southwest  Level Estimated
04:48AM 41.8125 127.7151 206° Southwest  Level Estimated
04:49AM 41.7323 127.6630 206° Southwest  Level Estimated
04:50AM 41.6521 127.6110 206° Southwest  Level Estimated
04:51AM 41.5718 127.5591 206° Southwest  Level Estimated
04:52AM 41.4916 127.5074 206° Southwest  Level Estimated
04:53AM 41.4113 127.4558 206° Southwest  Level Estimated
04:54AM 41.3310 127.4044 206° Southwest  Level Estimated
04:55AM 41.2507 127.3530 206° Southwest  Level Estimated
04:56AM 41.1703 127.3018 206° Southwest  Level Estimated
04:57AM 41.0899 127.2507 206° Southwest  Level Estimated
04:58AM 41.0095 127.1998 206° Southwest  Level Estimated
04:59AM 40.9291 127.1489 206° Southwest  Level Estimated
05:00AM 40.8487 127.0982 205° Southwest  Level Estimated
05:01AM 40.7682 127.0476 205° Southwest  Level Estimated
05:02AM 40.6877 126.9971 205° Southwest  Level Estimated
05:03AM 40.6072 126.9468 205° Southwest  Level Estimated
05:04AM 40.5267 126.8966 205° Southwest  Level Estimated
05:05AM 40.4461 126.8465 205° Southwest  Level Estimated
05:06AM 40.3656 126.7965 205° Southwest  Level Estimated
05:07AM 40.2850 126.7466 205° Southwest  Level Estimated
05:08AM 40.2043 126.6969 205° Southwest  Level Estimated
05:09AM 40.1237 126.6473 205° Southwest  Level Estimated
05:10AM 40.0430 126.5977 205° Southwest  Level Estimated
05:11AM 39.9623 126.5484 205° Southwest  Level Estimated
05:12AM 39.8816 126.4991 205° Southwest  Level Estimated
05:13AM 39.8009 126.4499 205° Southwest  Level Estimated
05:14AM 39.7202 126.4009 205° Southwest  Level Estimated
05:15AM 39.6394 126.3519 205° Southwest  Level Estimated
05:16AM 39.5587 126.3031 205° Southwest  Level Estimated
05:17AM 39.4779 126.2544 205° Southwest  Level Estimated
05:18AM 39.3970 126.2058 205° Southwest  Level Estimated
05:19AM 39.3162 126.1573 205° Southwest  Level Estimated
05:20AM 39.2353 126.1090 205° Southwest  Level Estimated
05:21AM 39.1544 126.0607 205° Southwest  Level Estimated
05:22AM 39.0735 126.0126 205° Southwest  Level Estimated
05:23AM 38.9926 125.9646 205° Southwest  Level Estimated
05:24AM 38.9117 125.9166 205° Southwest  Level Estimated
05:25AM 38.8307 125.8688 205° Southwest  Level Estimated
05:26AM 38.7497 125.8211 205° Southwest  Level Estimated
05:27AM 38.6687 125.7735 205° Southwest  Level Estimated
05:28AM 38.5877 125.7260 205° Southwest  Level Estimated
05:29AM 38.5067 125.6786 205° Southwest  Level Estimated
05:30AM 38.4256 125.6314 205° Southwest  Level Estimated
05:31AM 38.3445 125.5842 205° Southwest  Level Estimated
05:32AM 38.2634 125.5371 204° Southwest  Level Estimated
05:33AM 38.1823 125.4902 204° Southwest  Level Estimated
05:34AM 38.1012 125.4433 204° Southwest  Level Estimated
05:35AM 38.0200 125.3966 204° Southwest  Level Estimated
05:36AM 37.9388 125.3499 204° Southwest  Level Estimated
05:37AM 37.8577 125.3034 204° Southwest  Level Estimated
05:38AM 37.7764 125.2569 204° Southwest  Level Estimated
05:39AM 37.6952 125.2106 204° Southwest  Level Estimated
05:40AM 37.6140 125.1644 204° Southwest  Level Estimated
05:41AM 37.5327 125.1182 204° Southwest  Level Estimated
05:42AM 37.4514 125.0722 204° Southwest  Level Estimated
05:43AM 37.3701 125.0262 204° Southwest  Level Estimated
05:44AM 37.2888 124.9804 204° Southwest  Level Estimated
05:45AM 37.2075 124.9347 204° Southwest  Level Estimated
05:46AM 37.1261 124.8890 204° Southwest  Level Estimated
05:47AM 37.0448 124.8435 204° Southwest  Level Estimated
05:48AM 36.9634 124.7980 204° Southwest  Level Estimated
05:49AM 36.8820 124.7527 204° Southwest  Level Estimated
05:50AM 36.8005 124.7074 204° Southwest  Level Estimated
05:51AM 36.7191 124.6623 204° Southwest  Level Estimated
05:52AM 36.6376 124.6172 204° Southwest  Level Estimated
05:53AM 36.5562 124.5723 204° Southwest  Level Estimated
05:54AM 36.4747 124.5274 204° Southwest  Level Estimated
05:55AM 36.3932 124.4826 204° Southwest  Level Estimated
05:56AM 36.3116 124.4379 204° Southwest  Level Estimated
05:57AM 36.2301 124.3933 204° Southwest  Level Estimated
05:58AM 36.1485 124.3488 204° Southwest  Level Estimated
05:59AM 36.0670 124.3044 204° Southwest  Level Estimated
06:00AM 35.9854 124.2601 204° Southwest  Level Estimated
06:01AM 35.9038 124.2159 204° Southwest  Level Estimated
06:02AM 35.8222 124.1718 204° Southwest  Level Estimated
06:03AM 35.7405 124.1277 204° Southwest  Level Estimated
06:04AM 35.6589 124.0838 204° Southwest  Level Estimated
06:05AM 35.5772 124.0399 204° Southwest  Level Estimated
06:06AM 35.4955 123.9961 204° Southwest  Level Estimated
06:07AM 35.4138 123.9525 204° Southwest  Level Estimated
06:08AM 35.3321 123.9089 204° Southwest  Level Estimated
06:09AM 35.2504 123.8654 203° Southwest  Level Estimated
06:10AM 35.1686 123.8220 203° Southwest  Level Estimated
06:11AM 35.0869 123.7786 203° Southwest  Level Estimated
06:12AM 35.0051 123.7354 203° Southwest  Level Estimated
06:13AM 34.9233 123.6923 203° Southwest  Level Estimated
06:14AM 34.8415 123.6492 203° Southwest  Level Estimated
06:15AM 34.7597 123.6062 203° Southwest  Level Estimated
06:16AM 34.6778 123.5633 203° Southwest  Level Estimated
06:17AM 34.5960 123.5205 203° Southwest  Level Estimated
06:18AM 34.5141 123.4778 203° Southwest  Level Estimated
06:19AM 34.4322 123.4351 203° Southwest  Level Estimated
06:20AM 34.3503 123.3925 203° Southwest  Level Estimated
06:21AM 34.2684 123.3501 203° Southwest  Level Estimated
06:22AM 34.1865 123.3077 203° Southwest  Level Estimated
06:23AM 34.1045 123.2654 203° Southwest  Level Estimated
06:24AM 34.0226 123.2231 203° Southwest  Level Estimated
06:25AM 33.9406 123.1810 203° Southwest  Level Estimated
06:26AM 33.8586 123.1389 203° Southwest  Level Estimated
06:27AM 33.7766 123.0969 203° Southwest  Level Estimated
06:28AM 33.6946 123.0550 203° Southwest  Level Estimated
06:29AM 33.6126 123.0132 203° Southwest  Level Estimated
06:30AM 33.5305 122.9714 203° Southwest  Level Estimated
06:31AM 33.4485 122.9298 203° Southwest  Level Estimated
06:32AM 33.3664 122.8882 203° Southwest  Level Estimated
06:33AM 33.2843 122.8467 203° Southwest  Level Estimated
06:34AM 33.2022 122.8052 203° Southwest  Level Estimated
06:35AM 33.1201 122.7639 203° Southwest  Level Estimated
06:36AM 33.0380 122.7226 203° Southwest  Level Estimated
06:37AM 32.9559 122.6814 203° Southwest  Level Estimated
06:38AM 32.8737 122.6403 203° Southwest  Level Estimated
06:39AM 32.7915 122.5992 203° Southwest  Level Estimated
06:40AM 32.7094 122.5582 203° Southwest  Level Estimated
06:41AM 32.6272 122.5173 203° Southwest  Level Estimated
06:42AM 32.5450 122.4765 203° Southwest  Level Estimated
06:43AM 32.4627 122.4358 203° Southwest  Level Estimated
06:44AM 32.3805 122.3951 203° Southwest  Level Estimated
06:45AM 32.2983 122.3545 203° Southwest  Level Estimated
06:46AM 32.2160 122.3140 203° Southwest  Level Estimated
06:47AM 32.1337 122.2735 203° Southwest  Level Estimated
06:48AM 32.0515 122.2331 203° Southwest  Level Estimated
06:49AM 31.9692 122.1928 203° Southwest  Level Estimated
06:50AM 31.8869 122.1526 203° Southwest  Level Estimated
06:51AM 31.8045 122.1124 203° Southwest  Level Estimated
06:52AM 31.7222 122.0723 203° Southwest  Level Estimated
06:53AM 31.6399 122.0323 202° Southwest  Level Estimated
06:54AM 31.5575 121.9924 202° Southwest  Level Estimated
06:55AM 31.4751 121.9525 202° Southwest  Level Estimated
06:56AM 31.3927 121.9127 202° Southwest  Level Estimated
06:57AM 31.3103 121.8729 202° Southwest  Level Estimated
06:58AM 31.2279 121.8333 202° Southwest  Level Estimated
06:59AM 31.1455 121.7937 202° Southwest  Level Estimated
07:00AM 31.1428 121.7924 202° Southwest  Level Estimated
07:01AM 31.1428 121.7924 221° Southwest  Level Estimated
07:02AM 31.1428 121.7924 221° Southwest  Level Estimated
07:03AM 31.1428 121.7924 221° Southwest  Level Estimated
07:04AM 31.1428 121.7924 221° Southwest  Level Estimated
07:05AM 31.1428 121.7924 221° Southwest  Level Estimated
07:06AM 31.1428 121.7924 221° Southwest  Level Estimated
07:07AM 31.1428 121.7924 221° Southwest  Level Estimated
07:08AM 31.1428 121.7924 221° Southwest  Level Estimated
07:09AM 31.1428 121.7924 221° Southwest  Level Estimated
07:10AM 31.1428 121.7924 221° Southwest  Level Estimated
07:11AM 31.1428 121.7924 221° Southwest  Level Estimated
07:12AM 31.1428 121.7924 221° Southwest  Level Estimated
07:13AM 31.1428 121.7924 221° Southwest  Level Estimated
07:14AM 31.1428 121.7924 221° Southwest  Level Estimated
07:15AM 31.1428 121.7924 221° Southwest  Level Estimated